Time;durP1;ratioP1;P1;durP2;ratioP2;P2;SDS_P1;SDS_P2;PMS_P1;PMS_P2;Temp;Humidity;BMP_temperature;BMP_pressure;BME280_temperature;BME280_humidity;BME280_pressure;Samples;Min_cycle;Max_cycle;Signal;HPM_P1;HPM_P2
2024/01/30 00:01:56;;;;;;;22.35;16.13;;;1.80;99.90;;;;;;5056378;28;20716;-75
2024/01/30 00:04:41;;;;;;;24.05;15.57;;;1.80;99.90;;;;;;5061289;28;20224;-75
2024/01/30 00:07:27;;;;;;;21.10;15.85;;;1.80;99.90;;;;;;5060749;28;20834;-76
2024/01/30 00:10:12;;;;;;;21.65;16.42;;;1.80;99.90;;;;;;5054436;28;20250;-76
2024/01/30 00:12:58;;;;;;;22.15;16.25;;;1.80;99.90;;;;;;5065238;28;20215;-75
2024/01/30 00:15:44;;;;;;;29.92;17.92;;;1.80;99.90;;;;;;5063541;28;20579;-76
2024/01/30 00:18:31;;;;;;;22.67;15.57;;;1.80;99.90;;;;;;5054283;28;20592;-76
2024/01/30 00:21:17;;;;;;;23.40;17.33;;;1.80;99.90;;;;;;5051799;28;20315;-75
2024/01/30 00:24:02;;;;;;;23.98;15.98;;;1.90;99.90;;;;;;5062598;28;20204;-76
2024/01/30 00:26:48;;;;;;;23.70;15.70;;;1.80;99.90;;;;;;5059622;28;20236;-75
2024/01/30 00:29:34;;;;;;;26.20;15.48;;;1.80;99.90;;;;;;5060542;28;20267;-75
2024/01/30 00:32:20;;;;;;;27.52;16.02;;;1.80;99.90;;;;;;5067521;28;20209;-75
2024/01/30 00:35:09;;;;;;;21.27;15.75;;;1.80;99.90;;;;;;5062329;28;20275;-75
2024/01/30 00:37:55;;;;;;;23.70;17.33;;;1.70;99.90;;;;;;5058231;28;20243;-75
2024/01/30 00:40:40;;;;;;;23.05;16.35;;;1.70;99.90;;;;;;5056453;28;20202;-75
2024/01/30 00:43:26;;;;;;;21.33;16.42;;;1.70;99.90;;;;;;5057308;28;20288;-76
2024/01/30 00:46:12;;;;;;;24.67;17.02;;;1.70;99.90;;;;;;5060005;28;20247;-75
2024/01/30 00:48:58;;;;;;;22.10;17.42;;;1.70;99.90;;;;;;5056948;28;20205;-75
2024/01/30 00:51:45;;;;;;;25.02;18.25;;;1.70;99.90;;;;;;5055479;28;20209;-76
2024/01/30 00:54:30;;;;;;;24.17;17.48;;;1.70;99.90;;;;;;5062285;28;20201;-75
2024/01/30 00:57:16;;;;;;;25.55;16.48;;;1.70;99.90;;;;;;5062120;28;20229;-76
2024/01/30 01:00:01;;;;;;;23.98;15.40;;;1.80;99.90;;;;;;5056724;28;20244;-76
2024/01/30 01:02:47;;;;;;;21.50;15.98;;;1.70;99.90;;;;;;5058711;28;20204;-75
2024/01/30 01:05:33;;;;;;;24.00;16.42;;;1.70;99.90;;;;;;5056955;28;20208;-75
2024/01/30 01:08:20;;;;;;;24.48;16.70;;;1.70;99.90;;;;;;5058644;28;20620;-76
2024/01/30 01:11:05;;;;;;;21.02;16.00;;;1.70;99.90;;;;;;5061554;28;20566;-75
2024/01/30 01:13:51;;;;;;;21.05;16.02;;;1.60;99.90;;;;;;5058322;28;20223;-76
2024/01/30 01:16:37;;;;;;;22.02;17.00;;;1.60;99.90;;;;;;5058048;28;20771;-76
2024/01/30 01:19:23;;;;;;;23.30;16.20;;;1.60;99.90;;;;;;5062831;28;20723;-75
2024/01/30 01:22:09;;;;;;;20.92;15.20;;;1.60;99.90;;;;;;5063707;28;20702;-75
2024/01/30 01:24:56;;;;;;;20.67;14.60;;;1.70;99.90;;;;;;5065276;28;20286;-75
2024/01/30 01:27:42;;;;;;;23.73;15.55;;;1.60;99.90;;;;;;5061487;28;20220;-75
2024/01/30 01:30:29;;;;;;;21.13;15.52;;;1.60;99.90;;;;;;5056444;28;20672;-75
2024/01/30 01:33:15;;;;;;;21.33;16.60;;;1.70;99.90;;;;;;5056795;28;20291;-75
2024/01/30 01:36:02;;;;;;;18.63;15.00;;;1.70;99.90;;;;;;5063942;28;20343;-75
2024/01/30 01:38:47;;;;;;;20.73;14.80;;;1.80;99.90;;;;;;5054158;28;20240;-74
2024/01/30 01:41:34;;;;;;;20.70;16.30;;;1.70;99.90;;;;;;5060453;28;20201;-75
2024/01/30 01:44:20;;;;;;;23.38;16.35;;;1.70;99.90;;;;;;5060970;28;20550;-75
2024/01/30 01:47:06;;;;;;;29.95;15.95;;;1.70;99.90;;;;;;5059011;28;20220;-75
2024/01/30 01:49:52;;;;;;;19.23;14.32;;;1.60;99.90;;;;;;5059390;28;20280;-75
2024/01/30 01:52:40;;;;;;;19.08;14.55;;;1.50;99.90;;;;;;5059459;28;20205;-74
2024/01/30 01:55:27;;;;;;;21.33;15.98;;;1.60;99.90;;;;;;5058796;28;20566;-74
2024/01/30 01:58:15;;;;;;;19.25;14.07;;;1.60;99.90;;;;;;5066955;28;20233;-74
2024/01/30 02:01:01;;;;;;;22.35;15.98;;;1.60;99.90;;;;;;5066307;28;20207;-75
2024/01/30 02:03:47;;;;;;;25.13;15.48;;;1.60;99.90;;;;;;5059822;28;20204;-74
2024/01/30 02:06:33;;;;;;;18.30;14.90;;;1.60;99.90;;;;;;5060820;28;20764;-74
2024/01/30 02:09:19;;;;;;;19.13;14.90;;;1.50;99.90;;;;;;5060527;28;20250;-75
2024/01/30 02:12:05;;;;;;;20.23;15.88;;;1.60;99.90;;;;;;5058398;28;20338;-75
2024/01/30 02:14:53;;;;;;;20.80;15.80;;;1.50;99.90;;;;;;5063677;28;20196;-75
2024/01/30 02:17:38;;;;;;;17.45;14.05;;;1.50;99.90;;;;;;5061987;28;20221;-75
2024/01/30 02:20:26;;;;;;;19.50;14.23;;;1.40;99.90;;;;;;5058264;28;20620;-75
2024/01/30 02:23:13;;;;;;;19.92;14.02;;;1.50;99.90;;;;;;5063266;28;20686;-75
2024/01/30 02:25:59;;;;;;;23.73;14.65;;;1.50;99.90;;;;;;5058731;28;20694;-75
2024/01/30 02:28:44;;;;;;;17.95;13.75;;;1.60;99.90;;;;;;5063726;28;20579;-75
2024/01/30 02:31:30;;;;;;;19.98;13.68;;;1.60;99.90;;;;;;5063167;28;20332;-75
2024/01/30 02:34:16;;;;;;;20.60;14.50;;;1.40;99.90;;;;;;5061304;28;20574;-75
2024/01/30 02:37:02;;;;;;;20.52;13.85;;;1.40;99.90;;;;;;5061181;28;20595;-75
2024/01/30 02:39:49;;;;;;;20.15;13.57;;;1.30;99.90;;;;;;5058188;28;20214;-75
2024/01/30 02:42:34;;;;;;;22.83;15.40;;;1.40;99.90;;;;;;5060762;28;20689;-75
2024/01/30 02:45:19;;;;;;;25.27;16.88;;;1.40;99.90;;;;;;5066740;28;20616;-75
2024/01/30 02:48:06;;;;;;;21.92;15.32;;;1.40;99.90;;;;;;5058077;28;20221;-74
2024/01/30 02:50:51;;;;;;;19.05;14.05;;;1.40;99.90;;;;;;5060077;28;20777;-74
2024/01/30 02:53:37;;;;;;;23.45;16.45;;;1.30;99.90;;;;;;5062899;28;20675;-74
2024/01/30 02:56:24;;;;;;;23.60;17.00;;;1.20;99.90;;;;;;5058298;28;20205;-74
2024/01/30 02:59:10;;;;;;;23.50;16.58;;;1.20;99.90;;;;;;5065287;28;20251;-73
2024/01/30 03:01:56;;;;;;;21.85;15.85;;;1.20;99.90;;;;;;5060876;28;20255;-73
2024/01/30 03:04:42;;;;;;;23.10;15.00;;;1.20;99.90;;;;;;5066486;28;20247;-74
2024/01/30 03:07:27;;;;;;;24.45;16.27;;;1.20;99.90;;;;;;5059133;28;20267;-74
2024/01/30 03:10:13;;;;;;;20.95;15.95;;;1.30;99.90;;;;;;5061587;28;20597;-74
2024/01/30 03:13:00;;;;;;;18.55;13.07;;;1.30;99.90;;;;;;5055010;28;20667;-75
2024/01/30 03:15:46;;;;;;;23.25;14.80;;;1.30;99.90;;;;;;5055159;28;20210;-75
2024/01/30 03:18:31;;;;;;;21.30;15.68;;;1.20;99.90;;;;;;5061994;28;20228;-74
2024/01/30 03:21:17;;;;;;;19.52;14.75;;;1.10;99.90;;;;;;5054490;28;20232;-75
2024/01/30 03:24:03;;;;;;;25.58;16.38;;;1.10;99.90;;;;;;5064259;28;20216;-75
2024/01/30 03:26:48;;;;;;;19.30;15.48;;;1.20;99.90;;;;;;5064479;28;20224;-75
2024/01/30 03:29:36;;;;;;;16.80;14.48;;;1.20;99.90;;;;;;5061306;28;20616;-75
2024/01/30 03:32:21;;;;;;;20.63;14.70;;;1.20;99.90;;;;;;5062122;28;20719;-74
2024/01/30 03:35:08;;;;;;;19.30;14.65;;;1.20;99.90;;;;;;5062950;28;20196;-75
2024/01/30 03:37:54;;;;;;;21.17;15.30;;;1.10;99.90;;;;;;5060131;28;20598;-74
2024/01/30 03:40:39;;;;;;;20.30;14.63;;;1.10;99.90;;;;;;5066954;28;20201;-75
2024/01/30 03:43:25;;;;;;;21.60;14.60;;;1.10;99.90;;;;;;5062826;28;20576;-75
2024/01/30 03:46:13;;;;;;;20.63;14.63;;;1.00;99.90;;;;;;5062516;28;20316;-75
2024/01/30 03:48:58;;;;;;;16.95;13.85;;;1.00;99.90;;;;;;5061316;28;20200;-75
2024/01/30 03:51:44;;;;;;;17.23;11.60;;;1.00;99.90;;;;;;5064289;28;20192;-74
2024/01/30 03:54:30;;;;;;;16.50;14.02;;;1.00;99.90;;;;;;5066272;28;20208;-74
2024/01/30 03:57:16;;;;;;;17.98;13.48;;;1.00;99.90;;;;;;5065574;28;20241;-75
2024/01/30 04:00:04;;;;;;;17.42;13.95;;;1.10;99.90;;;;;;5061178;28;20211;-75
2024/01/30 04:02:52;;;;;;;22.92;13.27;;;1.00;99.90;;;;;;5063782;28;20201;-75
2024/01/30 04:05:37;;;;;;;25.33;14.00;;;0.90;99.90;;;;;;5064782;28;20329;-75
2024/01/30 04:08:23;;;;;;;19.73;14.20;;;0.90;99.90;;;;;;5068311;28;20722;-75
2024/01/30 04:11:08;;;;;;;19.85;13.35;;;0.90;99.90;;;;;;5059330;28;20215;-74
2024/01/30 04:13:54;;;;;;;17.88;13.40;;;0.90;99.90;;;;;;5063942;28;20203;-75
2024/01/30 04:16:40;;;;;;;18.08;13.75;;;1.00;99.90;;;;;;5066958;28;20324;-75
2024/01/30 04:19:26;;;;;;;20.00;14.38;;;1.00;99.90;;;;;;5068012;28;20358;-75
2024/01/30 04:22:12;;;;;;;23.33;14.10;;;1.10;99.90;;;;;;5061134;28;20227;-75
2024/01/30 04:24:58;;;;;;;20.00;14.45;;;1.00;99.90;;;;;;5060522;28;20205;-75
2024/01/30 04:27:43;;;;;;;17.42;12.73;;;1.00;99.90;;;;;;5070673;28;20243;-74
2024/01/30 04:30:29;;;;;;;19.20;12.77;;;0.90;99.90;;;;;;5063734;28;20209;-75
2024/01/30 04:33:14;;;;;;;16.45;12.68;;;1.00;99.90;;;;;;5069682;28;20601;-75
2024/01/30 04:36:01;;;;;;;17.35;12.48;;;1.00;99.90;;;;;;5060704;28;20207;-74
2024/01/30 04:38:47;;;;;;;13.25;11.60;;;1.00;99.90;;;;;;5063227;28;20224;-75
2024/01/30 04:41:32;;;;;;;17.02;13.10;;;1.00;99.90;;;;;;5064337;28;20209;-75
2024/01/30 04:44:18;;;;;;;18.33;12.68;;;1.10;99.90;;;;;;5071221;28;20733;-75
2024/01/30 04:47:05;;;;;;;19.95;13.82;;;1.10;99.90;;;;;;5059820;28;20228;-74
2024/01/30 04:49:52;;;;;;;22.08;13.90;;;1.10;99.90;;;;;;5058016;28;20259;-75
2024/01/30 04:52:39;;;;;;;18.45;13.45;;;1.00;99.90;;;;;;5062246;28;20747;-74
2024/01/30 04:55:25;;;;;;;14.63;12.30;;;1.00;99.90;;;;;;5068078;28;20224;-75
2024/01/30 04:58:10;;;;;;;16.08;11.68;;;0.90;99.90;;;;;;5067567;28;20247;-74
2024/01/30 05:00:56;;;;;;;14.43;12.15;;;0.90;99.90;;;;;;5059183;28;20204;-75
2024/01/30 05:03:41;;;;;;;20.13;13.90;;;0.90;99.90;;;;;;5069360;28;20203;-74
2024/01/30 05:06:27;;;;;;;17.35;11.55;;;0.80;99.90;;;;;;5065981;28;20703;-75
2024/01/30 05:09:14;;;;;;;14.60;11.80;;;0.80;99.90;;;;;;5070278;28;20317;-75
2024/01/30 05:11:59;;;;;;;15.15;11.40;;;0.80;99.90;;;;;;5068536;28;20208;-74
2024/01/30 05:14:45;;;;;;;14.80;12.55;;;0.80;99.90;;;;;;5068728;28;20295;-74
2024/01/30 05:17:30;;;;;;;16.95;12.35;;;0.80;99.90;;;;;;5067250;28;20220;-75
2024/01/30 05:20:16;;;;;;;17.10;11.65;;;0.80;99.90;;;;;;5066384;28;20235;-74
2024/01/30 05:23:02;;;;;;;16.10;12.50;;;0.80;99.90;;;;;;5061969;28;20753;-75
2024/01/30 05:25:48;;;;;;;16.17;11.65;;;0.80;99.90;;;;;;5072255;28;20570;-75
2024/01/30 05:28:34;;;;;;;19.45;13.85;;;0.80;99.90;;;;;;5065295;28;20267;-74
2024/01/30 05:31:21;;;;;;;17.27;12.82;;;0.70;99.90;;;;;;5053419;28;20592;-74
2024/01/30 05:34:06;;;;;;;15.55;12.98;;;0.70;99.90;;;;;;5055608;28;20343;-75
2024/01/30 05:36:52;;;;;;;16.15;13.18;;;0.70;99.90;;;;;;5059761;28;20231;-75
2024/01/30 05:39:38;;;;;;;14.82;13.23;;;0.70;99.90;;;;;;5068757;28;20222;-74
2024/01/30 05:42:24;;;;;;;14.38;11.73;;;0.70;99.90;;;;;;5065737;28;20204;-75
2024/01/30 05:45:10;;;;;;;15.80;12.70;;;0.70;99.90;;;;;;5048794;28;20401;-75
2024/01/30 05:47:56;;;;;;;16.38;13.07;;;0.70;99.90;;;;;;5043470;28;20224;-74
2024/01/30 05:50:41;;;;;;;19.83;13.02;;;0.70;99.90;;;;;;5051947;28;20197;-74
2024/01/30 05:53:27;;;;;;;17.92;13.02;;;0.70;99.90;;;;;;5043099;28;20203;-75
2024/01/30 05:56:13;;;;;;;15.65;11.80;;;0.70;99.90;;;;;;5045714;28;20197;-75
2024/01/30 05:59:00;;;;;;;17.13;12.10;;;0.70;99.90;;;;;;5054242;28;20238;-75
2024/01/30 06:01:47;;;;;;;13.63;10.57;;;0.80;99.90;;;;;;5047017;28;21239;-75
2024/01/30 06:04:33;;;;;;;18.92;12.15;;;0.80;99.90;;;;;;5048262;28;20201;-75
2024/01/30 06:07:19;;;;;;;15.75;12.13;;;0.70;99.90;;;;;;5052413;28;20726;-75
2024/01/30 06:10:05;;;;;;;16.17;12.52;;;0.80;99.90;;;;;;5048371;28;20352;-75
2024/01/30 06:12:51;;;;;;;15.73;11.43;;;0.80;99.90;;;;;;5053709;28;20786;-75
2024/01/30 06:15:38;;;;;;;20.15;11.77;;;0.70;99.90;;;;;;5051236;28;20700;-75
2024/01/30 06:18:23;;;;;;;14.52;10.68;;;0.70;99.90;;;;;;5046380;28;20778;-75
2024/01/30 06:21:09;;;;;;;16.17;11.32;;;0.70;99.90;;;;;;5044368;28;20208;-74
2024/01/30 06:23:54;;;;;;;14.35;9.98;;;0.60;99.90;;;;;;5046331;28;20588;-74
2024/01/30 06:26:41;;;;;;;17.33;11.52;;;0.60;99.90;;;;;;5056526;28;20574;-75
2024/01/30 06:29:27;;;;;;;12.82;10.10;;;0.70;99.90;;;;;;5052376;28;20221;-75
2024/01/30 06:32:14;;;;;;;16.38;10.52;;;0.70;99.90;;;;;;5057388;28;20285;-75
2024/01/30 06:35:00;;;;;;;13.10;10.52;;;0.80;99.90;;;;;;5048991;28;20205;-74
2024/01/30 06:37:46;;;;;;;12.73;10.88;;;0.80;99.90;;;;;;5051135;28;20269;-75
2024/01/30 06:40:31;;;;;;;15.90;11.73;;;0.80;99.90;;;;;;5055358;28;20243;-75
2024/01/30 06:43:17;;;;;;;13.15;10.65;;;0.80;99.90;;;;;;5052768;28;20204;-74
2024/01/30 06:46:03;;;;;;;14.50;11.23;;;0.80;99.90;;;;;;5065462;28;20201;-75
2024/01/30 06:48:50;;;;;;;16.65;11.25;;;0.70;99.90;;;;;;5049662;28;20648;-75
2024/01/30 06:51:36;;;;;;;13.73;10.70;;;0.60;99.90;;;;;;5055381;28;20204;-74
2024/01/30 06:54:21;;;;;;;13.48;10.45;;;0.60;99.90;;;;;;5056689;28;20232;-75
2024/01/30 06:57:08;;;;;;;13.52;10.68;;;0.60;99.90;;;;;;5058818;28;20228;-75
2024/01/30 06:59:54;;;;;;;15.30;12.10;;;0.50;99.90;;;;;;5053295;28;20236;-75
2024/01/30 07:02:39;;;;;;;16.75;11.70;;;0.50;99.90;;;;;;5060901;28;20207;-75
2024/01/30 07:05:27;;;;;;;19.73;13.93;;;0.60;99.90;;;;;;5067419;28;20258;-74
2024/01/30 07:08:12;;;;;;;18.48;15.32;;;0.60;99.90;;;;;;5068977;28;20248;-75
2024/01/30 07:10:58;;;;;;;20.02;15.25;;;0.60;99.90;;;;;;5069357;28;20196;-75
2024/01/30 07:13:43;;;;;;;24.70;16.60;;;0.60;99.90;;;;;;5068711;28;20271;-75
2024/01/30 07:16:29;;;;;;;25.52;18.30;;;0.60;99.90;;;;;;5068966;28;20425;-75
2024/01/30 07:19:15;;;;;;;28.27;19.50;;;0.60;99.90;;;;;;5068852;28;20354;-75
2024/01/30 07:22:02;;;;;;;27.70;18.17;;;0.60;99.90;;;;;;5063358;28;20269;-75
2024/01/30 07:24:49;;;;;;;26.05;18.40;;;0.60;99.90;;;;;;5070163;28;20327;-75
2024/01/30 07:27:34;;;;;;;30.30;20.25;;;0.70;99.90;;;;;;5069218;28;20231;-74
2024/01/30 07:30:20;;;;;;;28.63;20.77;;;0.70;99.90;;;;;;5064674;28;20331;-74
2024/01/30 07:33:06;;;;;;;24.70;16.77;;;0.70;99.90;;;;;;5069240;28;20342;-74
2024/01/30 07:35:54;;;;;;;21.38;14.98;;;0.80;99.90;;;;;;5069728;28;20691;-74
2024/01/30 07:38:41;;;;;;;13.90;11.75;;;0.90;99.90;;;;;;5068399;28;20581;-74
2024/01/30 07:41:26;;;;;;;14.40;12.00;;;1.10;99.90;;;;;;5068297;28;20255;-74
2024/01/30 07:44:12;;;;;;;17.33;11.73;;;1.10;99.90;;;;;;5069785;28;20207;-74
2024/01/30 07:46:58;;;;;;;14.88;11.15;;;1.00;99.90;;;;;;5064602;28;20235;-73
2024/01/30 07:49:43;;;;;;;13.95;11.80;;;0.90;99.90;;;;;;5061145;28;20540;-75
2024/01/30 07:52:29;;;;;;;18.60;13.25;;;0.90;99.90;;;;;;5063343;28;20208;-74
2024/01/30 07:55:16;;;;;;;19.00;13.40;;;1.00;99.90;;;;;;5061028;28;20576;-75
2024/01/30 07:58:03;;;;;;;22.33;14.63;;;1.00;99.90;;;;;;5052769;28;20224;-74
2024/01/30 08:00:49;;;;;;;20.92;14.55;;;1.10;99.90;;;;;;5045767;28;20220;-74
2024/01/30 08:03:35;;;;;;;18.27;14.30;;;1.00;99.90;;;;;;5046106;28;20208;-74
2024/01/30 08:06:21;;;;;;;23.15;15.20;;;1.10;99.90;;;;;;5055899;28;20347;-74
2024/01/30 08:09:07;;;;;;;19.27;13.25;;;1.10;99.90;;;;;;5044530;28;20193;-74
2024/01/30 08:11:54;;;;;;;18.02;13.20;;;1.30;99.90;;;;;;5044816;28;20205;-74
2024/01/30 08:14:41;;;;;;;18.05;11.98;;;1.40;99.90;;;;;;5058840;28;20213;-74
2024/01/30 08:17:26;;;;;;;20.33;13.57;;;1.50;99.90;;;;;;5049293;28;20228;-74
2024/01/30 08:20:13;;;;;;;19.70;14.30;;;1.50;99.90;;;;;;5044248;28;20229;-74
2024/01/30 08:23:00;;;;;;;20.05;14.60;;;1.70;99.90;;;;;;5049327;28;20454;-74
2024/01/30 08:25:45;;;;;;;17.73;14.55;;;1.80;99.90;;;;;;5051497;28;20207;-74
2024/01/30 08:28:32;;;;;;;19.55;13.88;;;1.70;99.90;;;;;;5050334;28;20784;-74
2024/01/30 08:31:18;;;;;;;20.10;14.95;;;1.80;99.90;;;;;;5051233;28;20333;-74
2024/01/30 08:34:04;;;;;;;20.23;15.82;;;1.90;99.90;;;;;;5050252;28;20212;-74
2024/01/30 08:36:49;;;;;;;26.50;19.10;;;1.90;99.90;;;;;;5044079;28;20236;-74
2024/01/30 08:39:35;;;;;;;22.83;16.00;;;2.00;99.90;;;;;;5050383;28;20245;-74
2024/01/30 08:42:22;;;;;;;29.70;16.00;;;2.10;99.90;;;;;;5048352;28;20201;-74
2024/01/30 08:45:10;;;;;;;22.38;16.85;;;2.10;99.90;;;;;;5047179;28;20722;-74
2024/01/30 08:47:56;;;;;;;25.38;18.55;;;2.20;99.90;;;;;;5057539;28;20220;-75
2024/01/30 08:50:42;;;;;;;25.30;18.55;;;2.40;99.90;;;;;;5051174;28;20193;-74
2024/01/30 08:53:27;;;;;;;24.65;19.08;;;2.50;99.90;;;;;;5049608;28;20329;-74
2024/01/30 08:56:13;;;;;;;27.95;18.73;;;2.40;99.90;;;;;;5052534;28;20357;-74
2024/01/30 08:58:59;;;;;;;22.90;17.13;;;2.60;99.90;;;;;;5052232;28;20213;-74
2024/01/30 09:01:47;;;;;;;25.00;17.35;;;2.60;99.90;;;;;;5048227;28;20213;-74
2024/01/30 09:04:33;;;;;;;23.48;18.00;;;2.60;99.90;;;;;;5058090;28;20204;-74
2024/01/30 09:07:19;;;;;;;27.17;17.33;;;2.70;99.90;;;;;;5051273;28;20227;-74
2024/01/30 09:10:05;;;;;;;29.10;17.92;;;2.60;99.90;;;;;;5043847;28;20207;-74
2024/01/30 09:12:51;;;;;;;25.90;18.45;;;2.70;99.90;;;;;;5049613;28;20821;-74
2024/01/30 09:15:37;;;;;;;27.95;20.60;;;2.80;99.90;;;;;;5052294;28;20329;-74
2024/01/30 09:18:23;;;;;;;28.30;19.10;;;2.80;99.90;;;;;;5049130;28;20349;-74
2024/01/30 09:21:09;;;;;;;31.17;19.45;;;2.90;99.90;;;;;;5045997;28;20229;-74
2024/01/30 09:23:55;;;;;;;26.40;19.33;;;2.90;99.90;;;;;;5055266;28;20208;-74
2024/01/30 09:26:41;;;;;;;29.67;17.63;;;3.00;99.90;;;;;;5048251;28;20218;-74
2024/01/30 09:29:27;;;;;;;28.15;19.35;;;3.00;99.90;;;;;;5048338;28;20201;-74
2024/01/30 09:32:12;;;;;;;23.50;17.33;;;3.00;99.90;;;;;;5049017;28;20299;-74
2024/01/30 09:34:59;;;;;;;25.27;17.83;;;3.10;99.90;;;;;;5048519;28;20696;-74
2024/01/30 09:37:45;;;;;;;25.15;18.45;;;3.20;99.90;;;;;;5049739;28;20277;-75
2024/01/30 09:40:31;;;;;;;23.20;16.45;;;3.30;99.90;;;;;;5047034;28;20229;-74
2024/01/30 09:43:21;;;;;;;25.90;15.23;;;3.40;99.90;;;;;;5058008;28;20253;-73
2024/01/30 09:46:08;;;;;;;22.10;17.10;;;3.50;99.90;;;;;;5045739;28;20220;-74
2024/01/30 09:48:56;;;;;;;22.63;17.33;;;3.60;99.90;;;;;;5047801;28;20490;-74
2024/01/30 09:51:43;;;;;;;22.88;16.60;;;3.50;99.90;;;;;;5050315;28;20805;-74
2024/01/30 09:54:31;;;;;;;28.30;17.33;;;3.60;99.90;;;;;;5049713;28;20202;-75
2024/01/30 09:57:17;;;;;;;23.27;16.10;;;3.70;99.90;;;;;;5056905;28;20594;-74
2024/01/30 10:00:04;;;;;;;24.30;16.80;;;3.80;99.90;;;;;;5046574;28;20242;-74
2024/01/30 10:02:49;;;;;;;24.33;16.67;;;3.90;99.90;;;;;;5045927;28;20447;-74
2024/01/30 10:05:38;;;;;;;22.73;16.30;;;4.00;99.90;;;;;;5052022;28;20426;-74
2024/01/30 10:08:25;;;;;;;24.45;17.00;;;4.10;99.90;;;;;;5053924;28;20309;-74
2024/01/30 10:11:10;;;;;;;28.77;16.88;;;4.20;99.90;;;;;;5049576;28;20202;-74
2024/01/30 10:13:56;;;;;;;35.92;22.95;;;4.20;99.90;;;;;;5046480;28;20681;-74
2024/01/30 10:16:41;;;;;;;34.00;23.35;;;4.40;99.90;;;;;;5050873;28;20207;-74
2024/01/30 10:19:27;;;;;;;33.50;23.23;;;4.50;99.90;;;;;;5050825;28;20697;-74
2024/01/30 10:22:13;;;;;;;33.42;22.35;;;4.60;99.90;;;;;;5045696;28;20445;-74
2024/01/30 10:25:01;;;;;;;33.40;23.45;;;4.70;99.90;;;;;;5050870;28;20203;-74
2024/01/30 10:27:48;;;;;;;40.33;23.67;;;4.70;99.90;;;;;;5056923;28;20246;-75
2024/01/30 10:30:33;;;;;;;34.57;24.60;;;4.80;99.90;;;;;;5061338;28;20809;-75
2024/01/30 10:33:19;;;;;;;45.13;24.73;;;4.90;99.90;;;;;;5054127;28;20437;-75
2024/01/30 10:36:06;;;;;;;34.60;22.53;;;5.00;99.90;;;;;;5046978;28;20567;-74
2024/01/30 10:38:52;;;;;;;38.97;23.90;;;5.10;99.90;;;;;;5053012;28;20430;-74
2024/01/30 10:41:44;;;;;;;34.47;21.98;;;5.20;99.90;;;;;;5054724;28;20558;-75
2024/01/30 10:44:33;;;;;;;35.80;22.17;;;5.30;99.90;;;;;;5055168;28;20199;-75
2024/01/30 10:47:27;;;;;;;40.93;24.40;;;5.50;99.90;;;;;;5050370;28;21159;-74
2024/01/30 10:50:13;;;;;;;40.23;24.73;;;5.60;99.90;;;;;;5048012;28;20417;-74
2024/01/30 10:53:00;;;;;;;44.30;26.10;;;5.70;99.90;;;;;;5057643;28;20453;-74
2024/01/30 10:55:48;;;;;;;39.47;27.57;;;5.80;99.90;;;;;;5061939;28;20432;-75
2024/01/30 10:58:35;;;;;;;36.10;26.50;;;5.90;99.90;;;;;;5061818;28;20539;-75
2024/01/30 11:01:22;;;;;;;36.70;26.00;;;5.90;99.90;;;;;;5060468;28;20564;-75
2024/01/30 11:04:08;;;;;;;34.23;22.57;;;6.00;99.90;;;;;;5065551;28;20422;-75
2024/01/30 11:06:55;;;;;;;33.63;21.30;;;6.10;99.90;;;;;;5070616;28;20444;-75
2024/01/30 11:09:41;;;;;;;23.10;13.57;;;6.30;99.90;;;;;;5059507;28;20898;-75
2024/01/30 11:12:27;;;;;;;16.33;11.77;;;6.50;99.90;;;;;;5054320;28;20430;-76
2024/01/30 11:15:16;;;;;;;26.97;16.90;;;6.80;99.90;;;;;;5049192;28;20439;-75
2024/01/30 11:18:02;;;;;;;22.43;15.23;;;7.00;99.90;;;;;;5053622;28;20577;-75
2024/01/30 11:20:49;;;;;;;10.57;7.90;;;7.10;99.90;;;;;;5056678;28;20482;-74
2024/01/30 11:23:36;;;;;;;15.63;10.13;;;7.50;99.90;;;;;;5056268;28;20567;-75
2024/01/30 11:26:28;;;;;;;16.97;11.70;;;7.80;99.90;;;;;;5052909;28;20434;-75
2024/01/30 11:29:15;;;;;;;8.83;6.23;;;8.00;99.90;;;;;;5049692;28;20505;-74
2024/01/30 11:32:02;;;;;;;8.17;6.50;;;8.10;99.90;;;;;;5052051;28;20426;-74
2024/01/30 11:34:48;;;;;;;9.10;5.77;;;8.20;99.90;;;;;;5055586;28;20563;-75
2024/01/30 11:37:38;;;;;;;16.73;7.23;;;8.40;99.90;;;;;;5055420;28;20459;-75
2024/01/30 11:40:26;;;;;;;13.93;7.60;;;8.50;99.90;;;;;;5064347;28;20518;-74
2024/01/30 11:43:12;;;;;;;19.53;8.80;;;8.70;99.90;;;;;;5048111;28;20566;-75
2024/01/30 11:45:57;;;;;;;15.43;7.80;;;8.80;99.90;;;;;;5059739;28;20423;-75
2024/01/30 11:48:44;;;;;;;9.20;6.37;;;8.80;99.90;;;;;;5062387;28;20453;-75
2024/01/30 11:51:32;;;;;;;24.13;10.60;;;8.90;99.90;;;;;;5057043;28;20438;-75
2024/01/30 11:54:17;;;;;;;26.37;10.70;;;9.00;99.90;;;;;;5062263;28;20426;-75
2024/01/30 11:57:03;;;;;;;26.13;12.87;;;9.20;99.90;;;;;;5063919;28;20451;-75
2024/01/30 11:59:49;;;;;;;31.97;11.87;;;9.30;99.90;;;;;;5059719;28;20434;-74
2024/01/30 12:02:35;;;;;;;24.53;10.17;;;9.30;99.90;;;;;;5065819;28;20449;-75
2024/01/30 12:05:22;;;;;;;13.87;7.33;;;9.40;99.90;;;;;;5061267;28;20477;-75
2024/01/30 12:08:08;;;;;;;18.93;7.10;;;9.40;99.90;;;;;;5057184;28;20445;-74
2024/01/30 12:10:58;;;;;;;40.97;15.93;;;9.50;99.90;;;;;;5056755;28;20561;-74
2024/01/30 12:13:44;;;;;;;14.17;8.53;;;9.50;99.90;;;;;;5061329;28;20547;-74
2024/01/30 12:16:30;;;;;;;14.37;7.03;;;9.60;99.90;;;;;;5060359;28;20439;-75
2024/01/30 12:19:23;;;;;;;12.47;7.50;;;9.60;99.90;;;;;;5055481;28;20421;-74
2024/01/30 12:22:12;;;;;;;22.80;9.30;;;9.60;99.90;;;;;;5057778;28;20600;-75
2024/01/30 12:24:58;;;;;;;15.07;7.57;;;9.60;99.90;;;;;;5057836;28;20595;-75
2024/01/30 12:27:45;;;;;;;12.30;8.63;;;9.60;99.90;;;;;;5060859;28;20552;-75
2024/01/30 12:30:31;;;;;;;28.60;12.50;;;9.70;99.90;;;;;;5059763;28;20426;-75
2024/01/30 12:33:18;;;;;;;17.77;7.90;;;9.70;99.90;;;;;;5054119;28;20431;-74
2024/01/30 12:36:05;;;;;;;26.40;11.23;;;9.70;99.90;;;;;;5053122;28;20423;-75
2024/01/30 12:38:52;;;;;;;54.83;16.73;;;9.70;99.90;;;;;;5058344;28;20441;-74
2024/01/30 12:41:37;;;;;;;40.10;13.10;;;9.80;99.90;;;;;;5058974;28;20512;-74
2024/01/30 12:44:23;;;;;;;52.93;16.90;;;9.80;99.90;;;;;;5063715;28;20438;-73
2024/01/30 12:47:10;;;;;;;35.60;13.03;;;9.90;99.90;;;;;;5063421;28;20451;-74
2024/01/30 12:49:56;;;;;;;15.80;8.23;;;9.90;99.90;;;;;;5059452;28;20438;-74
2024/01/30 12:52:42;;;;;;;10.80;6.80;;;10.00;99.90;;;;;;5051858;28;20449;-72
2024/01/30 12:55:30;;;;;;;10.17;6.73;;;10.00;99.90;;;;;;5052448;28;20454;-72
2024/01/30 12:58:15;;;;;;;15.13;7.20;;;10.00;99.90;;;;;;5055208;28;20521;-72
2024/01/30 13:01:01;;;;;;;13.53;6.80;;;10.00;99.90;;;;;;5059548;28;20478;-73
2024/01/30 13:03:46;;;;;;;22.23;9.40;;;10.10;99.90;;;;;;5060336;28;20422;-73
2024/01/30 13:06:32;;;;;;;10.53;7.47;;;10.10;99.90;;;;;;5057835;28;20492;-73
2024/01/30 13:09:18;;;;;;;10.63;7.00;;;10.10;99.90;;;;;;5052336;28;20501;-73
2024/01/30 13:12:06;;;;;;;10.13;7.10;;;10.20;99.90;;;;;;5056419;28;20443;-74
2024/01/30 13:14:52;;;;;;;15.87;7.07;;;10.30;99.90;;;;;;5057562;28;20464;-73
2024/01/30 13:17:38;;;;;;;10.17;7.10;;;10.30;99.90;;;;;;5060252;28;20965;-73
2024/01/30 13:20:23;;;;;;;10.93;7.30;;;10.50;99.90;;;;;;5060396;28;20512;-73
2024/01/30 13:23:09;;;;;;;10.93;7.00;;;10.50;99.90;;;;;;5058495;28;20425;-73
2024/01/30 13:25:58;;;;;;;9.50;6.80;;;10.60;99.90;;;;;;5054652;28;20426;-73
2024/01/30 13:28:45;;;;;;;11.23;7.47;;;10.70;99.90;;;;;;5060936;28;20564;-73
2024/01/30 13:31:30;;;;;;;8.80;6.73;;;10.80;99.90;;;;;;5059268;28;20793;-73
2024/01/30 13:34:16;;;;;;;9.90;6.77;;;10.80;99.90;;;;;;5054671;28;20517;-73
2024/01/30 13:37:02;;;;;;;12.07;7.30;;;10.80;99.90;;;;;;5066148;28;20473;-73
2024/01/30 13:39:47;;;;;;;10.23;7.80;;;10.80;99.90;;;;;;5055152;28;20561;-74
2024/01/30 13:42:33;;;;;;;11.50;7.97;;;10.80;99.90;;;;;;5058599;28;20474;-73
2024/01/30 13:45:20;;;;;;;12.43;7.50;;;10.80;99.90;;;;;;5059740;28;20452;-73
2024/01/30 13:48:07;;;;;;;10.20;7.67;;;10.80;99.90;;;;;;5068155;28;20490;-73
2024/01/30 13:50:53;;;;;;;10.67;7.57;;;10.80;99.90;;;;;;5056404;28;20552;-73
2024/01/30 13:53:38;;;;;;;10.40;7.17;;;10.80;99.90;;;;;;5060353;28;20430;-73
2024/01/30 13:56:24;;;;;;;14.80;8.10;;;10.70;99.90;;;;;;5052205;28;20797;-73
2024/01/30 13:59:10;;;;;;;13.23;7.37;;;10.70;99.90;;;;;;5052732;28;20517;-73
2024/01/30 14:01:57;;;;;;;11.33;7.60;;;10.60;99.90;;;;;;5057968;28;20594;-73
2024/01/30 14:04:43;;;;;;;13.53;7.90;;;10.60;99.90;;;;;;5056409;28;20460;-73
2024/01/30 14:07:29;;;;;;;8.70;7.03;;;10.60;99.90;;;;;;5056341;28;20428;-73
2024/01/30 14:10:14;;;;;;;11.60;8.07;;;10.50;99.90;;;;;;5048885;28;20428;-73
2024/01/30 14:13:00;;;;;;;11.03;7.70;;;10.40;99.90;;;;;;5063611;28;20422;-73
2024/01/30 14:15:46;;;;;;;9.13;7.03;;;10.40;99.90;;;;;;5060670;28;20437;-73